sensor_id;sensor_type;location;lat;lon;timestamp;P1;durP1;ratioP1;P2;durP2;ratioP2
10007;SDS011;5043;41.766;26.204;2023-03-01T00:01:09;2.40;;;2.13;;
10007;SDS011;5043;41.766;26.204;2023-03-01T00:03:43;2.80;;;2.47;;
10007;SDS011;5043;41.766;26.204;2023-03-01T00:06:08;2.37;;;1.93;;
10007;SDS011;5043;41.766;26.204;2023-03-01T00:08:34;2.20;;;1.90;;
10007;SDS011;5043;41.766;26.204;2023-03-01T00:11:01;2.67;;;2.47;;
10007;SDS011;5043;41.766;26.204;2023-03-01T00:13:42;4.20;;;2.63;;
10007;SDS011;5043;41.766;26.204;2023-03-01T00:16:13;2.80;;;2.40;;
10007;SDS011;5043;41.766;26.204;2023-03-01T00:18:40;3.42;;;2.85;;
10007;SDS011;5043;41.766;26.204;2023-03-01T00:21:06;2.57;;;2.37;;
10007;SDS011;5043;41.766;26.204;2023-03-01T00:23:33;4.22;;;2.30;;
10007;SDS011;5043;41.766;26.204;2023-03-01T00:25:59;2.03;;;1.88;;
10007;SDS011;5043;41.766;26.204;2023-03-01T00:28:25;2.70;;;2.50;;
10007;SDS011;5043;41.766;26.204;2023-03-01T00:30:51;1.80;;;1.70;;
10007;SDS011;5043;41.766;26.204;2023-03-01T00:33:16;2.42;;;2.22;;
10007;SDS011;5043;41.766;26.204;2023-03-01T00:35:42;1.92;;;1.77;;
10007;SDS011;5043;41.766;26.204;2023-03-01T00:38:07;3.05;;;2.55;;
10007;SDS011;5043;41.766;26.204;2023-03-01T00:40:34;3.90;;;1.92;;
10007;SDS011;5043;41.766;26.204;2023-03-01T00:43:00;2.53;;;2.28;;
10007;SDS011;5043;41.766;26.204;2023-03-01T00:45:26;3.38;;;2.17;;
10007;SDS011;5043;41.766;26.204;2023-03-01T00:47:52;2.83;;;2.55;;
10007;SDS011;5043;41.766;26.204;2023-03-01T00:50:18;2.03;;;1.90;;
10007;SDS011;5043;41.766;26.204;2023-03-01T00:52:44;2.13;;;1.93;;
10007;SDS011;5043;41.766;26.204;2023-03-01T00:55:10;4.05;;;1.75;;
10007;SDS011;5043;41.766;26.204;2023-03-01T00:57:36;5.93;;;4.25;;
10007;SDS011;5043;41.766;26.204;2023-03-01T01:00:03;2.42;;;2.22;;
10007;SDS011;5043;41.766;26.204;2023-03-01T01:02:32;2.38;;;1.98;;
10007;SDS011;5043;41.766;26.204;2023-03-01T01:04:58;2.50;;;2.30;;
10007;SDS011;5043;41.766;26.204;2023-03-01T01:07:24;2.65;;;2.40;;
10007;SDS011;5043;41.766;26.204;2023-03-01T01:09:49;2.55;;;2.35;;
10007;SDS011;5043;41.766;26.204;2023-03-01T01:12:15;3.95;;;2.60;;
10007;SDS011;5043;41.766;26.204;2023-03-01T01:14:40;3.60;;;2.80;;
10007;SDS011;5043;41.766;26.204;2023-03-01T01:17:06;4.37;;;2.17;;
10007;SDS011;5043;41.766;26.204;2023-03-01T01:19:31;1.87;;;1.77;;
10007;SDS011;5043;41.766;26.204;2023-03-01T01:21:56;1.93;;;1.83;;
10007;SDS011;5043;41.766;26.204;2023-03-01T01:24:22;2.47;;;2.28;;
10007;SDS011;5043;41.766;26.204;2023-03-01T01:26:47;3.25;;;2.00;;
10007;SDS011;5043;41.766;26.204;2023-03-01T01:29:13;2.67;;;2.33;;
10007;SDS011;5043;41.766;26.204;2023-03-01T01:31:39;2.10;;;1.90;;
10007;SDS011;5043;41.766;26.204;2023-03-01T01:34:07;2.92;;;2.05;;
10007;SDS011;5043;41.766;26.204;2023-03-01T01:36:37;1.90;;;1.80;;
10007;SDS011;5043;41.766;26.204;2023-03-01T01:39:02;2.50;;;1.90;;
10007;SDS011;5043;41.766;26.204;2023-03-01T01:41:29;1.90;;;1.80;;
10007;SDS011;5043;41.766;26.204;2023-03-01T01:46:55;2.08;;;1.80;;
10007;SDS011;5043;41.766;26.204;2023-03-01T01:49:30;1.85;;;1.75;;
10007;SDS011;5043;41.766;26.204;2023-03-01T01:52:21;1.70;;;1.60;;
10007;SDS011;5043;41.766;26.204;2023-03-01T01:57:37;1.80;;;1.60;;
10007;SDS011;5043;41.766;26.204;2023-03-01T02:00:13;6.72;;;4.68;;
10007;SDS011;5043;41.766;26.204;2023-03-01T02:02:40;2.87;;;2.33;;
10007;SDS011;5043;41.766;26.204;2023-03-01T02:05:14;1.67;;;1.58;;
10007;SDS011;5043;41.766;26.204;2023-03-01T02:07:45;2.07;;;1.57;;
10007;SDS011;5043;41.766;26.204;2023-03-01T02:10:12;1.40;;;1.30;;
10007;SDS011;5043;41.766;26.204;2023-03-01T02:12:38;1.63;;;1.52;;
10007;SDS011;5043;41.766;26.204;2023-03-01T02:15:05;1.65;;;1.55;;
10007;SDS011;5043;41.766;26.204;2023-03-01T02:17:30;1.67;;;1.57;;
10007;SDS011;5043;41.766;26.204;2023-03-01T02:22:56;2.17;;;1.52;;
10007;SDS011;5043;41.766;26.204;2023-03-01T02:30:33;2.20;;;2.05;;
10007;SDS011;5043;41.766;26.204;2023-03-01T02:32:59;13.43;;;8.20;;
10007;SDS011;5043;41.766;26.204;2023-03-01T02:35:36;3.30;;;2.70;;
10007;SDS011;5043;41.766;26.204;2023-03-01T02:38:05;1.90;;;1.70;;
10007;SDS011;5043;41.766;26.204;2023-03-01T02:40:33;3.90;;;2.42;;
10007;SDS011;5043;41.766;26.204;2023-03-01T02:43:00;3.13;;;2.60;;
10007;SDS011;5043;41.766;26.204;2023-03-01T02:45:29;2.47;;;2.15;;
10007;SDS011;5043;41.766;26.204;2023-03-01T02:47:55;2.30;;;2.10;;
10007;SDS011;5043;41.766;26.204;2023-03-01T02:50:33;1.60;;;1.50;;
10007;SDS011;5043;41.766;26.204;2023-03-01T02:53:27;2.50;;;2.05;;
10007;SDS011;5043;41.766;26.204;2023-03-01T02:55:55;2.90;;;2.10;;
10007;SDS011;5043;41.766;26.204;2023-03-01T02:58:21;1.88;;;1.75;;
10007;SDS011;5043;41.766;26.204;2023-03-01T03:00:46;1.80;;;1.70;;
10007;SDS011;5043;41.766;26.204;2023-03-01T03:03:14;1.70;;;1.60;;
10007;SDS011;5043;41.766;26.204;2023-03-01T03:05:41;1.35;;;1.30;;
10007;SDS011;5043;41.766;26.204;2023-03-01T03:08:07;3.33;;;1.85;;
10007;SDS011;5043;41.766;26.204;2023-03-01T03:10:35;2.35;;;1.50;;
10007;SDS011;5043;41.766;26.204;2023-03-01T03:13:04;2.40;;;1.80;;
10007;SDS011;5043;41.766;26.204;2023-03-01T03:15:32;6.07;;;4.40;;
10007;SDS011;5043;41.766;26.204;2023-03-01T03:18:01;3.90;;;2.13;;
10007;SDS011;5043;41.766;26.204;2023-03-01T03:20:28;2.45;;;2.25;;
10007;SDS011;5043;41.766;26.204;2023-03-01T03:22:55;4.80;;;2.65;;
10007;SDS011;5043;41.766;26.204;2023-03-01T03:25:23;3.38;;;2.83;;
10007;SDS011;5043;41.766;26.204;2023-03-01T03:27:49;3.33;;;2.88;;
10007;SDS011;5043;41.766;26.204;2023-03-01T03:30:21;4.88;;;2.78;;
10007;SDS011;5043;41.766;26.204;2023-03-01T03:32:49;2.75;;;2.55;;
10007;SDS011;5043;41.766;26.204;2023-03-01T03:35:21;3.70;;;3.30;;
10007;SDS011;5043;41.766;26.204;2023-03-01T03:37:58;4.53;;;4.13;;
10007;SDS011;5043;41.766;26.204;2023-03-01T03:40:38;4.10;;;3.50;;
10007;SDS011;5043;41.766;26.204;2023-03-01T03:43:06;3.20;;;2.88;;
10007;SDS011;5043;41.766;26.204;2023-03-01T03:45:33;3.80;;;3.13;;
10007;SDS011;5043;41.766;26.204;2023-03-01T03:48:16;4.10;;;3.70;;
10007;SDS011;5043;41.766;26.204;2023-03-01T03:50:46;3.17;;;2.90;;
10007;SDS011;5043;41.766;26.204;2023-03-01T03:53:14;4.88;;;3.67;;
10007;SDS011;5043;41.766;26.204;2023-03-01T03:55:40;5.38;;;3.35;;
10007;SDS011;5043;41.766;26.204;2023-03-01T03:58:06;4.15;;;3.45;;
10007;SDS011;5043;41.766;26.204;2023-03-01T04:00:43;4.65;;;3.53;;
10007;SDS011;5043;41.766;26.204;2023-03-01T04:03:10;6.00;;;3.78;;
10007;SDS011;5043;41.766;26.204;2023-03-01T04:05:37;5.13;;;3.80;;
10007;SDS011;5043;41.766;26.204;2023-03-01T04:08:03;5.28;;;3.53;;
10007;SDS011;5043;41.766;26.204;2023-03-01T04:10:41;9.57;;;3.50;;
10007;SDS011;5043;41.766;26.204;2023-03-01T04:13:10;6.03;;;3.55;;
10007;SDS011;5043;41.766;26.204;2023-03-01T04:15:37;4.97;;;3.58;;
10007;SDS011;5043;41.766;26.204;2023-03-01T04:18:04;4.70;;;3.93;;
10007;SDS011;5043;41.766;26.204;2023-03-01T04:20:31;6.73;;;4.20;;
10007;SDS011;5043;41.766;26.204;2023-03-01T04:23:18;3.83;;;3.25;;
10007;SDS011;5043;41.766;26.204;2023-03-01T04:25:49;3.80;;;3.47;;
10007;SDS011;5043;41.766;26.204;2023-03-01T04:31:01;4.03;;;3.20;;
10007;SDS011;5043;41.766;26.204;2023-03-01T04:33:37;3.30;;;3.00;;
10007;SDS011;5043;41.766;26.204;2023-03-01T04:36:04;4.75;;;3.45;;
10007;SDS011;5043;41.766;26.204;2023-03-01T04:38:30;3.83;;;3.50;;
10007;SDS011;5043;41.766;26.204;2023-03-01T04:40:55;4.63;;;4.07;;
10007;SDS011;5043;41.766;26.204;2023-03-01T04:43:21;4.07;;;3.40;;
10007;SDS011;5043;41.766;26.204;2023-03-01T04:45:46;3.53;;;3.10;;
10007;SDS011;5043;41.766;26.204;2023-03-01T04:48:12;4.77;;;3.50;;
10007;SDS011;5043;41.766;26.204;2023-03-01T04:50:37;3.97;;;3.67;;
10007;SDS011;5043;41.766;26.204;2023-03-01T04:53:02;10.77;;;7.30;;
10007;SDS011;5043;41.766;26.204;2023-03-01T04:55:28;14.02;;;10.02;;
10007;SDS011;5043;41.766;26.204;2023-03-01T04:57:54;6.85;;;4.15;;
10007;SDS011;5043;41.766;26.204;2023-03-01T05:00:20;4.82;;;3.88;;
10007;SDS011;5043;41.766;26.204;2023-03-01T05:05:14;5.97;;;3.92;;
10007;SDS011;5043;41.766;26.204;2023-03-01T05:07:40;7.70;;;4.40;;
10007;SDS011;5043;41.766;26.204;2023-03-01T05:10:05;4.18;;;3.30;;
10007;SDS011;5043;41.766;26.204;2023-03-01T05:12:31;8.57;;;3.90;;
10007;SDS011;5043;41.766;26.204;2023-03-01T05:14:56;6.65;;;4.10;;
10007;SDS011;5043;41.766;26.204;2023-03-01T05:17:23;4.78;;;3.90;;
10007;SDS011;5043;41.766;26.204;2023-03-01T05:19:49;4.07;;;3.60;;
10007;SDS011;5043;41.766;26.204;2023-03-01T05:22:15;6.15;;;3.58;;
10007;SDS011;5043;41.766;26.204;2023-03-01T05:24:40;5.53;;;3.95;;
10007;SDS011;5043;41.766;26.204;2023-03-01T05:27:05;6.28;;;4.05;;
10007;SDS011;5043;41.766;26.204;2023-03-01T05:29:31;4.40;;;3.92;;
10007;SDS011;5043;41.766;26.204;2023-03-01T05:32:00;10.32;;;6.90;;
10007;SDS011;5043;41.766;26.204;2023-03-01T05:34:36;8.32;;;5.20;;
10007;SDS011;5043;41.766;26.204;2023-03-01T05:37:05;15.07;;;10.57;;
10007;SDS011;5043;41.766;26.204;2023-03-01T05:39:32;7.90;;;6.50;;
10007;SDS011;5043;41.766;26.204;2023-03-01T05:41:59;6.18;;;5.13;;
10007;SDS011;5043;41.766;26.204;2023-03-01T05:44:26;5.15;;;4.15;;
10007;SDS011;5043;41.766;26.204;2023-03-01T05:46:52;4.32;;;2.97;;
10007;SDS011;5043;41.766;26.204;2023-03-01T05:49:18;5.60;;;3.50;;
10007;SDS011;5043;41.766;26.204;2023-03-01T05:51:47;6.35;;;3.58;;
10007;SDS011;5043;41.766;26.204;2023-03-01T05:54:14;6.00;;;4.22;;
10007;SDS011;5043;41.766;26.204;2023-03-01T05:56:40;6.00;;;3.35;;
10007;SDS011;5043;41.766;26.204;2023-03-01T05:59:06;6.13;;;4.00;;
10007;SDS011;5043;41.766;26.204;2023-03-01T06:01:32;6.03;;;3.13;;
10007;SDS011;5043;41.766;26.204;2023-03-01T06:03:58;3.72;;;3.15;;
10007;SDS011;5043;41.766;26.204;2023-03-01T06:06:24;5.93;;;3.95;;
10007;SDS011;5043;41.766;26.204;2023-03-01T06:08:50;4.32;;;2.85;;
10007;SDS011;5043;41.766;26.204;2023-03-01T06:11:16;3.53;;;3.08;;
10007;SDS011;5043;41.766;26.204;2023-03-01T06:13:42;6.03;;;3.55;;
10007;SDS011;5043;41.766;26.204;2023-03-01T06:16:08;8.07;;;3.92;;
10007;SDS011;5043;41.766;26.204;2023-03-01T06:18:35;4.13;;;3.55;;
10007;SDS011;5043;41.766;26.204;2023-03-01T06:21:01;4.05;;;3.10;;
10007;SDS011;5043;41.766;26.204;2023-03-01T06:23:27;8.53;;;3.60;;
10007;SDS011;5043;41.766;26.204;2023-03-01T06:25:52;4.95;;;3.95;;
10007;SDS011;5043;41.766;26.204;2023-03-01T06:28:18;5.32;;;3.60;;
10007;SDS011;5043;41.766;26.204;2023-03-01T06:30:43;5.03;;;3.13;;
10007;SDS011;5043;41.766;26.204;2023-03-01T06:33:09;6.43;;;3.70;;
10007;SDS011;5043;41.766;26.204;2023-03-01T06:35:35;3.47;;;2.92;;
10007;SDS011;5043;41.766;26.204;2023-03-01T06:38:01;4.53;;;3.70;;
10007;SDS011;5043;41.766;26.204;2023-03-01T06:40:28;4.50;;;3.83;;
10007;SDS011;5043;41.766;26.204;2023-03-01T06:42:54;5.55;;;4.05;;
10007;SDS011;5043;41.766;26.204;2023-03-01T06:45:20;4.93;;;3.20;;
10007;SDS011;5043;41.766;26.204;2023-03-01T06:47:46;4.82;;;3.53;;
10007;SDS011;5043;41.766;26.204;2023-03-01T06:50:12;5.28;;;3.75;;
10007;SDS011;5043;41.766;26.204;2023-03-01T06:52:38;6.32;;;4.05;;
10007;SDS011;5043;41.766;26.204;2023-03-01T06:55:04;7.93;;;5.28;;
10007;SDS011;5043;41.766;26.204;2023-03-01T06:57:30;7.13;;;5.00;;
10007;SDS011;5043;41.766;26.204;2023-03-01T06:59:56;7.88;;;4.60;;
10007;SDS011;5043;41.766;26.204;2023-03-01T07:02:21;8.40;;;3.72;;
10007;SDS011;5043;41.766;26.204;2023-03-01T07:04:51;4.63;;;3.10;;
10007;SDS011;5043;41.766;26.204;2023-03-01T07:07:17;6.03;;;4.15;;
10007;SDS011;5043;41.766;26.204;2023-03-01T07:09:46;9.70;;;4.90;;
10007;SDS011;5043;41.766;26.204;2023-03-01T07:12:13;6.57;;;5.20;;
10007;SDS011;5043;41.766;26.204;2023-03-01T07:14:39;6.53;;;4.80;;
10007;SDS011;5043;41.766;26.204;2023-03-01T07:17:04;3.75;;;3.08;;
10007;SDS011;5043;41.766;26.204;2023-03-01T07:19:29;4.53;;;3.40;;
10007;SDS011;5043;41.766;26.204;2023-03-01T07:21:55;5.18;;;3.53;;
10007;SDS011;5043;41.766;26.204;2023-03-01T07:24:21;2.88;;;2.58;;
10007;SDS011;5043;41.766;26.204;2023-03-01T07:26:50;4.90;;;3.03;;
10007;SDS011;5043;41.766;26.204;2023-03-01T07:29:17;6.00;;;3.58;;
10007;SDS011;5043;41.766;26.204;2023-03-01T07:31:42;5.32;;;2.35;;
10007;SDS011;5043;41.766;26.204;2023-03-01T07:34:08;8.23;;;3.45;;
10007;SDS011;5043;41.766;26.204;2023-03-01T07:36:34;4.50;;;3.42;;
10007;SDS011;5043;41.766;26.204;2023-03-01T07:38:59;9.73;;;3.35;;
10007;SDS011;5043;41.766;26.204;2023-03-01T07:41:27;3.92;;;3.30;;
10007;SDS011;5043;41.766;26.204;2023-03-01T07:43:53;8.20;;;5.10;;
10007;SDS011;5043;41.766;26.204;2023-03-01T07:46:18;12.32;;;5.03;;
10007;SDS011;5043;41.766;26.204;2023-03-01T07:48:47;7.63;;;4.15;;
10007;SDS011;5043;41.766;26.204;2023-03-01T07:51:12;5.63;;;4.07;;
10007;SDS011;5043;41.766;26.204;2023-03-01T07:53:38;4.05;;;2.75;;
10007;SDS011;5043;41.766;26.204;2023-03-01T07:56:05;5.57;;;3.35;;
10007;SDS011;5043;41.766;26.204;2023-03-01T07:58:35;5.57;;;3.30;;
10007;SDS011;5043;41.766;26.204;2023-03-01T08:01:03;3.42;;;2.75;;
10007;SDS011;5043;41.766;26.204;2023-03-01T08:03:33;9.52;;;4.30;;
10007;SDS011;5043;41.766;26.204;2023-03-01T08:06:00;6.30;;;3.90;;
10007;SDS011;5043;41.766;26.204;2023-03-01T08:08:26;15.10;;;8.27;;
10007;SDS011;5043;41.766;26.204;2023-03-01T08:10:52;9.23;;;3.13;;
10007;SDS011;5043;41.766;26.204;2023-03-01T08:13:17;7.95;;;4.38;;
10007;SDS011;5043;41.766;26.204;2023-03-01T08:15:48;11.00;;;6.35;;
10007;SDS011;5043;41.766;26.204;2023-03-01T08:18:14;9.07;;;6.22;;
10007;SDS011;5043;41.766;26.204;2023-03-01T08:20:40;8.27;;;5.53;;
10007;SDS011;5043;41.766;26.204;2023-03-01T08:23:06;13.75;;;9.57;;
10007;SDS011;5043;41.766;26.204;2023-03-01T08:25:31;11.85;;;6.75;;
10007;SDS011;5043;41.766;26.204;2023-03-01T08:27:57;11.05;;;6.90;;
10007;SDS011;5043;41.766;26.204;2023-03-01T08:30:22;7.65;;;4.43;;
10007;SDS011;5043;41.766;26.204;2023-03-01T08:32:49;7.57;;;5.03;;
10007;SDS011;5043;41.766;26.204;2023-03-01T08:35:15;8.52;;;4.55;;
10007;SDS011;5043;41.766;26.204;2023-03-01T08:37:41;3.03;;;2.20;;
10007;SDS011;5043;41.766;26.204;2023-03-01T08:40:07;2.80;;;2.08;;
10007;SDS011;5043;41.766;26.204;2023-03-01T08:42:35;2.88;;;2.22;;
10007;SDS011;5043;41.766;26.204;2023-03-01T08:45:02;4.20;;;2.65;;
10007;SDS011;5043;41.766;26.204;2023-03-01T08:47:28;4.05;;;2.50;;
10007;SDS011;5043;41.766;26.204;2023-03-01T08:49:53;3.83;;;2.88;;
10007;SDS011;5043;41.766;26.204;2023-03-01T08:52:19;4.82;;;3.33;;
10007;SDS011;5043;41.766;26.204;2023-03-01T08:54:46;1.67;;;1.58;;
10007;SDS011;5043;41.766;26.204;2023-03-01T08:57:12;6.57;;;2.15;;
10007;SDS011;5043;41.766;26.204;2023-03-01T08:59:38;9.65;;;2.42;;
10007;SDS011;5043;41.766;26.204;2023-03-01T09:02:10;7.82;;;2.95;;
10007;SDS011;5043;41.766;26.204;2023-03-01T09:04:37;5.40;;;2.50;;
10007;SDS011;5043;41.766;26.204;2023-03-01T09:07:03;3.75;;;2.40;;
10007;SDS011;5043;41.766;26.204;2023-03-01T09:09:29;3.03;;;2.42;;
10007;SDS011;5043;41.766;26.204;2023-03-01T09:11:54;7.47;;;2.45;;
10007;SDS011;5043;41.766;26.204;2023-03-01T09:14:20;4.22;;;2.38;;
10007;SDS011;5043;41.766;26.204;2023-03-01T09:16:45;3.88;;;3.47;;
10007;SDS011;5043;41.766;26.204;2023-03-01T09:19:11;5.32;;;3.67;;
10007;SDS011;5043;41.766;26.204;2023-03-01T09:21:37;3.92;;;3.05;;
10007;SDS011;5043;41.766;26.204;2023-03-01T09:24:03;4.82;;;3.08;;
10007;SDS011;5043;41.766;26.204;2023-03-01T09:26:28;2.20;;;2.00;;
10007;SDS011;5043;41.766;26.204;2023-03-01T09:28:54;3.10;;;2.40;;
10007;SDS011;5043;41.766;26.204;2023-03-01T09:31:21;12.18;;;7.80;;
10007;SDS011;5043;41.766;26.204;2023-03-01T09:33:49;8.45;;;5.53;;
10007;SDS011;5043;41.766;26.204;2023-03-01T09:36:16;3.80;;;2.97;;
10007;SDS011;5043;41.766;26.204;2023-03-01T09:38:43;4.60;;;3.40;;
10007;SDS011;5043;41.766;26.204;2023-03-01T09:41:34;2.60;;;2.00;;
10007;SDS011;5043;41.766;26.204;2023-03-01T09:47:00;2.05;;;1.80;;
10007;SDS011;5043;41.766;26.204;2023-03-01T09:51:59;2.03;;;1.80;;
10007;SDS011;5043;41.766;26.204;2023-03-01T09:54:37;2.70;;;2.50;;
10007;SDS011;5043;41.766;26.204;2023-03-01T10:02:47;4.05;;;3.65;;
10007;SDS011;5043;41.766;26.204;2023-03-01T10:08:01;3.25;;;2.47;;
10007;SDS011;5043;41.766;26.204;2023-03-01T10:10:32;4.57;;;2.70;;
10007;SDS011;5043;41.766;26.204;2023-03-01T10:13:00;5.03;;;2.63;;
10007;SDS011;5043;41.766;26.204;2023-03-01T10:15:43;4.65;;;1.88;;
10007;SDS011;5043;41.766;26.204;2023-03-01T10:18:16;2.05;;;1.60;;
10007;SDS011;5043;41.766;26.204;2023-03-01T10:20:59;2.10;;;1.90;;
10007;SDS011;5043;41.766;26.204;2023-03-01T10:23:26;3.58;;;2.17;;
10007;SDS011;5043;41.766;26.204;2023-03-01T10:31:16;18.30;;;14.25;;
10007;SDS011;5043;41.766;26.204;2023-03-01T10:33:47;10.50;;;8.65;;
10007;SDS011;5043;41.766;26.204;2023-03-01T10:36:16;4.22;;;3.38;;
10007;SDS011;5043;41.766;26.204;2023-03-01T10:41:19;2.60;;;2.40;;
10007;SDS011;5043;41.766;26.204;2023-03-01T10:46:22;3.47;;;2.13;;
10007;SDS011;5043;41.766;26.204;2023-03-01T10:49:04;2.05;;;1.95;;
10007;SDS011;5043;41.766;26.204;2023-03-01T10:51:41;2.28;;;2.08;;
10007;SDS011;5043;41.766;26.204;2023-03-01T10:54:26;3.10;;;2.50;;
10007;SDS011;5043;41.766;26.204;2023-03-01T10:56:55;3.17;;;2.67;;
10007;SDS011;5043;41.766;26.204;2023-03-01T11:02:14;2.75;;;1.88;;
10007;SDS011;5043;41.766;26.204;2023-03-01T11:04:58;2.08;;;1.85;;
10007;SDS011;5043;41.766;26.204;2023-03-01T11:10:23;5.40;;;2.28;;
10007;SDS011;5043;41.766;26.204;2023-03-01T11:12:51;5.90;;;3.20;;
10007;SDS011;5043;41.766;26.204;2023-03-01T11:15:25;3.50;;;2.95;;
10007;SDS011;5043;41.766;26.204;2023-03-01T11:17:53;3.70;;;2.90;;
10007;SDS011;5043;41.766;26.204;2023-03-01T11:20:29;2.47;;;2.10;;
10007;SDS011;5043;41.766;26.204;2023-03-01T11:23:04;5.13;;;3.53;;
10007;SDS011;5043;41.766;26.204;2023-03-01T11:25:35;3.42;;;2.95;;
10007;SDS011;5043;41.766;26.204;2023-03-01T15:09:13;6.43;;;4.88;;
10007;SDS011;5043;41.766;26.204;2023-03-01T15:11:41;7.18;;;5.22;;
10007;SDS011;5043;41.766;26.204;2023-03-01T15:17:39;10.90;;;6.90;;
10007;SDS011;5043;41.766;26.204;2023-03-01T15:20:03;7.85;;;6.47;;
10007;SDS011;5043;41.766;26.204;2023-03-01T15:22:31;7.03;;;5.97;;
10007;SDS011;5043;41.766;26.204;2023-03-01T15:24:57;9.77;;;7.80;;
10007;SDS011;5043;41.766;26.204;2023-03-01T15:27:23;10.07;;;7.63;;
10007;SDS011;5043;41.766;26.204;2023-03-01T15:29:54;13.57;;;6.72;;
10007;SDS011;5043;41.766;26.204;2023-03-01T15:34:48;8.80;;;6.80;;
10007;SDS011;5043;41.766;26.204;2023-03-01T15:40:22;9.15;;;6.90;;
10007;SDS011;5043;41.766;26.204;2023-03-01T15:43:02;15.63;;;9.77;;
10007;SDS011;5043;41.766;26.204;2023-03-01T15:45:31;16.75;;;9.05;;
10007;SDS011;5043;41.766;26.204;2023-03-01T15:48:04;20.98;;;9.82;;
10007;SDS011;5043;41.766;26.204;2023-03-01T15:50:40;8.90;;;7.03;;
10007;SDS011;5043;41.766;26.204;2023-03-01T15:53:07;14.18;;;9.40;;
10007;SDS011;5043;41.766;26.204;2023-03-01T15:55:36;17.08;;;10.70;;
10007;SDS011;5043;41.766;26.204;2023-03-01T15:58:15;15.00;;;10.07;;
10007;SDS011;5043;41.766;26.204;2023-03-01T16:00:47;15.48;;;10.10;;
10007;SDS011;5043;41.766;26.204;2023-03-01T16:03:16;11.50;;;9.45;;
10007;SDS011;5043;41.766;26.204;2023-03-01T16:05:46;14.27;;;11.13;;
10007;SDS011;5043;41.766;26.204;2023-03-01T16:08:12;11.82;;;8.77;;
10007;SDS011;5043;41.766;26.204;2023-03-01T16:10:38;13.68;;;8.65;;
10007;SDS011;5043;41.766;26.204;2023-03-01T16:13:05;12.68;;;9.88;;
10007;SDS011;5043;41.766;26.204;2023-03-01T16:15:31;13.55;;;9.95;;
10007;SDS011;5043;41.766;26.204;2023-03-01T16:17:59;13.75;;;10.05;;
10007;SDS011;5043;41.766;26.204;2023-03-01T16:20:26;10.13;;;7.60;;
10007;SDS011;5043;41.766;26.204;2023-03-01T16:22:53;10.77;;;8.13;;
10007;SDS011;5043;41.766;26.204;2023-03-01T16:25:19;12.70;;;9.38;;
10007;SDS011;5043;41.766;26.204;2023-03-01T16:27:46;12.52;;;9.65;;
10007;SDS011;5043;41.766;26.204;2023-03-01T16:30:13;16.90;;;8.55;;
10007;SDS011;5043;41.766;26.204;2023-03-01T16:32:41;7.82;;;7.03;;
10007;SDS011;5043;41.766;26.204;2023-03-01T16:35:08;15.48;;;11.10;;
10007;SDS011;5043;41.766;26.204;2023-03-01T16:37:35;12.95;;;9.30;;
10007;SDS011;5043;41.766;26.204;2023-03-01T16:40:04;10.68;;;8.40;;
10007;SDS011;5043;41.766;26.204;2023-03-01T16:42:34;10.48;;;8.77;;
10007;SDS011;5043;41.766;26.204;2023-03-01T16:45:03;12.18;;;9.60;;
10007;SDS011;5043;41.766;26.204;2023-03-01T16:47:29;9.77;;;7.40;;
10007;SDS011;5043;41.766;26.204;2023-03-01T16:49:54;8.02;;;7.22;;
10007;SDS011;5043;41.766;26.204;2023-03-01T16:52:21;11.23;;;8.32;;
10007;SDS011;5043;41.766;26.204;2023-03-01T16:54:47;9.90;;;8.57;;
10007;SDS011;5043;41.766;26.204;2023-03-01T16:57:13;12.50;;;6.90;;
10007;SDS011;5043;41.766;26.204;2023-03-01T16:59:39;7.35;;;6.65;;
10007;SDS011;5043;41.766;26.204;2023-03-01T17:02:06;8.70;;;7.10;;
10007;SDS011;5043;41.766;26.204;2023-03-01T17:04:36;6.60;;;5.93;;
10007;SDS011;5043;41.766;26.204;2023-03-01T17:07:02;8.60;;;5.75;;
10007;SDS011;5043;41.766;26.204;2023-03-01T17:09:28;8.93;;;6.75;;
10007;SDS011;5043;41.766;26.204;2023-03-01T17:11:53;10.10;;;5.97;;
10007;SDS011;5043;41.766;26.204;2023-03-01T17:14:19;7.50;;;5.80;;
10007;SDS011;5043;41.766;26.204;2023-03-01T17:16:45;6.55;;;5.25;;
10007;SDS011;5043;41.766;26.204;2023-03-01T17:19:12;6.05;;;5.30;;
10007;SDS011;5043;41.766;26.204;2023-03-01T17:21:43;5.43;;;4.83;;
10007;SDS011;5043;41.766;26.204;2023-03-01T17:24:09;8.43;;;5.85;;
10007;SDS011;5043;41.766;26.204;2023-03-01T17:26:35;10.70;;;8.85;;
10007;SDS011;5043;41.766;26.204;2023-03-01T17:29:00;7.93;;;5.72;;
10007;SDS011;5043;41.766;26.204;2023-03-01T17:31:26;8.50;;;6.53;;
10007;SDS011;5043;41.766;26.204;2023-03-01T17:33:51;6.95;;;6.18;;
10007;SDS011;5043;41.766;26.204;2023-03-01T17:36:17;6.95;;;5.80;;
10007;SDS011;5043;41.766;26.204;2023-03-01T17:38:43;11.38;;;6.82;;
10007;SDS011;5043;41.766;26.204;2023-03-01T17:41:10;8.38;;;6.38;;
10007;SDS011;5043;41.766;26.204;2023-03-01T17:43:36;10.93;;;7.37;;
10007;SDS011;5043;41.766;26.204;2023-03-01T17:46:02;13.65;;;9.38;;
10007;SDS011;5043;41.766;26.204;2023-03-01T17:48:28;17.13;;;10.30;;
10007;SDS011;5043;41.766;26.204;2023-03-01T17:50:53;12.57;;;7.77;;
10007;SDS011;5043;41.766;26.204;2023-03-01T17:53:19;10.43;;;7.78;;
10007;SDS011;5043;41.766;26.204;2023-03-01T17:55:45;9.50;;;6.97;;
10007;SDS011;5043;41.766;26.204;2023-03-01T17:58:13;15.93;;;9.95;;
10007;SDS011;5043;41.766;26.204;2023-03-01T18:00:39;17.58;;;9.32;;
10007;SDS011;5043;41.766;26.204;2023-03-01T18:03:05;17.15;;;10.18;;
10007;SDS011;5043;41.766;26.204;2023-03-01T18:05:32;19.05;;;12.23;;
10007;SDS011;5043;41.766;26.204;2023-03-01T18:08:00;18.77;;;9.50;;
10007;SDS011;5043;41.766;26.204;2023-03-01T18:10:25;7.22;;;5.90;;
10007;SDS011;5043;41.766;26.204;2023-03-01T18:12:51;13.77;;;7.57;;
10007;SDS011;5043;41.766;26.204;2023-03-01T18:15:17;14.25;;;8.18;;
10007;SDS011;5043;41.766;26.204;2023-03-01T18:17:44;15.45;;;7.97;;
10007;SDS011;5043;41.766;26.204;2023-03-01T18:20:09;13.05;;;7.60;;
10007;SDS011;5043;41.766;26.204;2023-03-01T18:22:37;12.10;;;7.93;;
10007;SDS011;5043;41.766;26.204;2023-03-01T18:25:03;10.00;;;6.43;;
10007;SDS011;5043;41.766;26.204;2023-03-01T18:27:29;7.32;;;4.88;;
10007;SDS011;5043;41.766;26.204;2023-03-01T18:29:55;6.80;;;5.60;;
10007;SDS011;5043;41.766;26.204;2023-03-01T18:32:21;10.50;;;6.65;;
10007;SDS011;5043;41.766;26.204;2023-03-01T18:34:47;8.88;;;6.72;;
10007;SDS011;5043;41.766;26.204;2023-03-01T18:37:13;12.30;;;7.70;;
10007;SDS011;5043;41.766;26.204;2023-03-01T18:39:39;11.68;;;7.20;;
10007;SDS011;5043;41.766;26.204;2023-03-01T18:42:05;12.32;;;6.18;;
10007;SDS011;5043;41.766;26.204;2023-03-01T18:44:31;6.35;;;4.97;;
10007;SDS011;5043;41.766;26.204;2023-03-01T18:46:56;9.98;;;6.28;;
10007;SDS011;5043;41.766;26.204;2023-03-01T18:49:22;7.85;;;5.53;;
10007;SDS011;5043;41.766;26.204;2023-03-01T18:51:49;11.02;;;5.97;;
10007;SDS011;5043;41.766;26.204;2023-03-01T18:54:15;12.45;;;7.53;;
10007;SDS011;5043;41.766;26.204;2023-03-01T18:56:40;10.43;;;6.20;;
10007;SDS011;5043;41.766;26.204;2023-03-01T18:59:15;8.68;;;5.68;;
10007;SDS011;5043;41.766;26.204;2023-03-01T19:05:14;18.60;;;7.70;;
10007;SDS011;5043;41.766;26.204;2023-03-01T19:07:52;12.18;;;7.22;;
10007;SDS011;5043;41.766;26.204;2023-03-01T19:11:03;9.82;;;6.68;;
10007;SDS011;5043;41.766;26.204;2023-03-01T19:13:33;6.85;;;5.53;;
10007;SDS011;5043;41.766;26.204;2023-03-01T19:16:07;7.05;;;5.00;;
10007;SDS011;5043;41.766;26.204;2023-03-01T19:18:37;5.60;;;4.57;;
10007;SDS011;5043;41.766;26.204;2023-03-01T19:21:08;7.25;;;4.97;;
10007;SDS011;5043;41.766;26.204;2023-03-01T19:24:19;10.45;;;5.35;;
10007;SDS011;5043;41.766;26.204;2023-03-01T19:26:45;11.43;;;5.97;;
10007;SDS011;5043;41.766;26.204;2023-03-01T19:29:10;10.13;;;6.47;;
10007;SDS011;5043;41.766;26.204;2023-03-01T19:31:36;6.20;;;4.93;;
10007;SDS011;5043;41.766;26.204;2023-03-01T19:34:02;7.25;;;5.32;;